sensor_id;sensor_type;location;lat;lon;timestamp;P1;durP1;ratioP1;P2;durP2;ratioP2
36585;SDS011;22591;48.314;11.562;2023-02-08T00:01:36;20.83;;;12.47;;
36585;SDS011;22591;48.314;11.562;2023-02-08T00:04:01;19.73;;;12.57;;
36585;SDS011;22591;48.314;11.562;2023-02-08T00:06:27;20.40;;;13.57;;
36585;SDS011;22591;48.314;11.562;2023-02-08T00:08:53;22.63;;;13.93;;
36585;SDS011;22591;48.314;11.562;2023-02-08T00:11:18;23.83;;;14.63;;
36585;SDS011;22591;48.314;11.562;2023-02-08T00:13:44;20.70;;;15.03;;
36585;SDS011;22591;48.314;11.562;2023-02-08T00:16:09;22.30;;;13.63;;
36585;SDS011;22591;48.314;11.562;2023-02-08T00:18:37;22.23;;;14.83;;
36585;SDS011;22591;48.314;11.562;2023-02-08T00:21:10;22.00;;;12.90;;
36585;SDS011;22591;48.314;11.562;2023-02-08T00:23:37;22.33;;;14.87;;
36585;SDS011;22591;48.314;11.562;2023-02-08T00:26:03;22.93;;;13.77;;
36585;SDS011;22591;48.314;11.562;2023-02-08T00:28:29;22.53;;;14.30;;
36585;SDS011;22591;48.314;11.562;2023-02-08T00:30:55;20.87;;;13.47;;
36585;SDS011;22591;48.314;11.562;2023-02-08T00:33:20;23.23;;;14.93;;
36585;SDS011;22591;48.314;11.562;2023-02-08T00:35:46;21.87;;;14.20;;
36585;SDS011;22591;48.314;11.562;2023-02-08T00:38:11;25.40;;;15.53;;
36585;SDS011;22591;48.314;11.562;2023-02-08T00:40:37;26.80;;;15.70;;
36585;SDS011;22591;48.314;11.562;2023-02-08T00:43:03;25.87;;;14.93;;
36585;SDS011;22591;48.314;11.562;2023-02-08T00:45:28;26.77;;;15.67;;
36585;SDS011;22591;48.314;11.562;2023-02-08T00:47:54;23.10;;;14.50;;
36585;SDS011;22591;48.314;11.562;2023-02-08T00:50:20;26.43;;;14.83;;
36585;SDS011;22591;48.314;11.562;2023-02-08T00:52:45;26.90;;;15.03;;
36585;SDS011;22591;48.314;11.562;2023-02-08T00:55:11;26.97;;;14.80;;
36585;SDS011;22591;48.314;11.562;2023-02-08T00:57:36;25.83;;;15.30;;
36585;SDS011;22591;48.314;11.562;2023-02-08T01:00:02;29.83;;;16.73;;
36585;SDS011;22591;48.314;11.562;2023-02-08T01:02:29;25.90;;;15.97;;
36585;SDS011;22591;48.314;11.562;2023-02-08T01:04:55;29.87;;;17.03;;
36585;SDS011;22591;48.314;11.562;2023-02-08T01:07:20;25.73;;;15.53;;
36585;SDS011;22591;48.314;11.562;2023-02-08T01:09:46;28.73;;;16.40;;
36585;SDS011;22591;48.314;11.562;2023-02-08T01:12:11;23.37;;;15.23;;
36585;SDS011;22591;48.314;11.562;2023-02-08T01:14:37;26.67;;;16.70;;
36585;SDS011;22591;48.314;11.562;2023-02-08T01:17:03;26.27;;;16.73;;
36585;SDS011;22591;48.314;11.562;2023-02-08T01:19:29;25.87;;;15.30;;
36585;SDS011;22591;48.314;11.562;2023-02-08T01:21:55;29.33;;;16.17;;
36585;SDS011;22591;48.314;11.562;2023-02-08T01:24:20;30.57;;;18.10;;
36585;SDS011;22591;48.314;11.562;2023-02-08T01:26:46;29.40;;;17.07;;
36585;SDS011;22591;48.314;11.562;2023-02-08T01:29:11;27.17;;;16.50;;
36585;SDS011;22591;48.314;11.562;2023-02-08T01:31:38;27.17;;;19.00;;
36585;SDS011;22591;48.314;11.562;2023-02-08T01:34:05;26.73;;;16.33;;
36585;SDS011;22591;48.314;11.562;2023-02-08T01:36:32;35.10;;;17.20;;
36585;SDS011;22591;48.314;11.562;2023-02-08T01:38:57;26.17;;;16.77;;
36585;SDS011;22591;48.314;11.562;2023-02-08T01:41:24;33.50;;;17.30;;
36585;SDS011;22591;48.314;11.562;2023-02-08T01:44:03;28.70;;;17.50;;
36585;SDS011;22591;48.314;11.562;2023-02-08T01:46:29;30.37;;;17.23;;
36585;SDS011;22591;48.314;11.562;2023-02-08T01:48:56;26.13;;;17.97;;
36585;SDS011;22591;48.314;11.562;2023-02-08T01:51:26;30.52;;;17.75;;
36585;SDS011;22591;48.314;11.562;2023-02-08T01:53:56;27.87;;;16.13;;
36585;SDS011;22591;48.314;11.562;2023-02-08T01:56:27;30.27;;;17.77;;
36585;SDS011;22591;48.314;11.562;2023-02-08T01:58:57;32.37;;;17.83;;
36585;SDS011;22591;48.314;11.562;2023-02-08T02:01:25;27.87;;;18.10;;
36585;SDS011;22591;48.314;11.562;2023-02-08T02:03:52;36.23;;;19.63;;
36585;SDS011;22591;48.314;11.562;2023-02-08T02:06:20;29.70;;;17.67;;
36585;SDS011;22591;48.314;11.562;2023-02-08T02:11:52;32.13;;;18.00;;
36585;SDS011;22591;48.314;11.562;2023-02-08T02:14:19;27.30;;;16.90;;
36585;SDS011;22591;48.314;11.562;2023-02-08T02:16:46;29.77;;;17.67;;
36585;SDS011;22591;48.314;11.562;2023-02-08T02:19:14;32.07;;;18.57;;
36585;SDS011;22591;48.314;11.562;2023-02-08T02:27:24;29.48;;;17.58;;
36585;SDS011;22591;48.314;11.562;2023-02-08T02:32:47;30.57;;;18.47;;
36585;SDS011;22591;48.314;11.562;2023-02-08T02:35:35;33.83;;;18.37;;
36585;SDS011;22591;48.314;11.562;2023-02-08T02:41:40;29.27;;;18.47;;
36585;SDS011;22591;48.314;11.562;2023-02-08T02:44:37;29.60;;;17.80;;
36585;SDS011;22591;48.314;11.562;2023-02-08T02:50:06;32.97;;;18.03;;
36585;SDS011;22591;48.314;11.562;2023-02-08T02:52:43;36.43;;;18.10;;
36585;SDS011;22591;48.314;11.562;2023-02-08T02:55:15;31.83;;;19.23;;
36585;SDS011;22591;48.314;11.562;2023-02-08T02:57:44;33.10;;;18.03;;
36585;SDS011;22591;48.314;11.562;2023-02-08T03:00:16;34.07;;;19.63;;
36585;SDS011;22591;48.314;11.562;2023-02-08T03:02:46;29.00;;;17.57;;
36585;SDS011;22591;48.314;11.562;2023-02-08T03:05:12;30.73;;;19.23;;
36585;SDS011;22591;48.314;11.562;2023-02-08T03:13:10;31.97;;;19.10;;
36585;SDS011;22591;48.314;11.562;2023-02-08T03:16:00;34.13;;;20.00;;
36585;SDS011;22591;48.314;11.562;2023-02-08T03:18:53;32.23;;;20.03;;
36585;SDS011;22591;48.314;11.562;2023-02-08T03:21:51;36.60;;;19.55;;
36585;SDS011;22591;48.314;11.562;2023-02-08T03:24:34;34.17;;;20.53;;
36585;SDS011;22591;48.314;11.562;2023-02-08T03:27:05;45.53;;;21.20;;
36585;SDS011;22591;48.314;11.562;2023-02-08T03:29:36;32.70;;;19.37;;
36585;SDS011;22591;48.314;11.562;2023-02-08T03:32:08;36.45;;;21.80;;
36585;SDS011;22591;48.314;11.562;2023-02-08T03:37:22;35.53;;;20.30;;
36585;SDS011;22591;48.314;11.562;2023-02-08T03:39:56;36.60;;;21.87;;
36585;SDS011;22591;48.314;11.562;2023-02-08T03:42:26;35.03;;;20.97;;
36585;SDS011;22591;48.314;11.562;2023-02-08T03:47:55;30.90;;;17.97;;
36585;SDS011;22591;48.314;11.562;2023-02-08T03:50:23;41.50;;;19.67;;
36585;SDS011;22591;48.314;11.562;2023-02-08T03:52:51;32.40;;;19.17;;
36585;SDS011;22591;48.314;11.562;2023-02-08T03:55:19;38.57;;;19.67;;
36585;SDS011;22591;48.314;11.562;2023-02-08T03:57:50;36.47;;;19.73;;
36585;SDS011;22591;48.314;11.562;2023-02-08T04:00:20;35.53;;;20.90;;
36585;SDS011;22591;48.314;11.562;2023-02-08T04:03:32;34.20;;;19.90;;
36585;SDS011;22591;48.314;11.562;2023-02-08T04:05:36;31.53;;;19.40;;
36585;SDS011;22591;48.314;11.562;2023-02-08T04:08:01;33.70;;;19.40;;
36585;SDS011;22591;48.314;11.562;2023-02-08T04:10:27;33.47;;;20.23;;
36585;SDS011;22591;48.314;11.562;2023-02-08T04:12:52;37.30;;;19.37;;
36585;SDS011;22591;48.314;11.562;2023-02-08T04:15:18;38.27;;;20.37;;
36585;SDS011;22591;48.314;11.562;2023-02-08T04:17:43;33.07;;;20.33;;
36585;SDS011;22591;48.314;11.562;2023-02-08T04:20:09;37.20;;;20.67;;
36585;SDS011;22591;48.314;11.562;2023-02-08T04:22:35;34.50;;;20.63;;
36585;SDS011;22591;48.314;11.562;2023-02-08T04:25:01;38.47;;;21.33;;
36585;SDS011;22591;48.314;11.562;2023-02-08T04:27:26;37.47;;;20.93;;
36585;SDS011;22591;48.314;11.562;2023-02-08T04:29:52;36.27;;;21.60;;
36585;SDS011;22591;48.314;11.562;2023-02-08T04:32:17;36.83;;;21.17;;
36585;SDS011;22591;48.314;11.562;2023-02-08T04:34:43;36.83;;;19.97;;
36585;SDS011;22591;48.314;11.562;2023-02-08T04:37:08;36.17;;;19.00;;
36585;SDS011;22591;48.314;11.562;2023-02-08T04:39:35;33.47;;;18.83;;
36585;SDS011;22591;48.314;11.562;2023-02-08T04:42:00;34.07;;;20.47;;
36585;SDS011;22591;48.314;11.562;2023-02-08T04:44:26;41.50;;;21.50;;
36585;SDS011;22591;48.314;11.562;2023-02-08T04:46:51;35.77;;;21.33;;
36585;SDS011;22591;48.314;11.562;2023-02-08T04:49:17;36.30;;;20.23;;
36585;SDS011;22591;48.314;11.562;2023-02-08T04:51:43;37.30;;;21.97;;
36585;SDS011;22591;48.314;11.562;2023-02-08T04:54:08;35.93;;;20.90;;
36585;SDS011;22591;48.314;11.562;2023-02-08T04:56:34;35.70;;;20.50;;
36585;SDS011;22591;48.314;11.562;2023-02-08T04:59:01;36.37;;;20.03;;
36585;SDS011;22591;48.314;11.562;2023-02-08T05:01:27;33.03;;;20.67;;
36585;SDS011;22591;48.314;11.562;2023-02-08T05:03:52;45.70;;;22.17;;
36585;SDS011;22591;48.314;11.562;2023-02-08T05:06:18;38.00;;;22.23;;
36585;SDS011;22591;48.314;11.562;2023-02-08T05:08:43;34.80;;;21.60;;
36585;SDS011;22591;48.314;11.562;2023-02-08T05:11:09;35.23;;;20.67;;
36585;SDS011;22591;48.314;11.562;2023-02-08T05:13:34;37.40;;;20.87;;
36585;SDS011;22591;48.314;11.562;2023-02-08T05:16:00;45.30;;;22.33;;
36585;SDS011;22591;48.314;11.562;2023-02-08T05:18:26;42.20;;;23.20;;
36585;SDS011;22591;48.314;11.562;2023-02-08T05:20:55;37.60;;;20.43;;
36585;SDS011;22591;48.314;11.562;2023-02-08T05:23:21;35.40;;;19.30;;
36585;SDS011;22591;48.314;11.562;2023-02-08T05:25:47;37.97;;;21.13;;
36585;SDS011;22591;48.314;11.562;2023-02-08T05:28:12;34.60;;;21.03;;
36585;SDS011;22591;48.314;11.562;2023-02-08T05:30:38;35.83;;;21.50;;
36585;SDS011;22591;48.314;11.562;2023-02-08T05:33:04;36.53;;;21.30;;
36585;SDS011;22591;48.314;11.562;2023-02-08T05:35:29;36.17;;;20.60;;
36585;SDS011;22591;48.314;11.562;2023-02-08T05:37:55;38.97;;;20.87;;
36585;SDS011;22591;48.314;11.562;2023-02-08T05:40:20;34.60;;;21.63;;
36585;SDS011;22591;48.314;11.562;2023-02-08T05:42:46;39.73;;;20.70;;
36585;SDS011;22591;48.314;11.562;2023-02-08T05:45:12;40.47;;;22.97;;
36585;SDS011;22591;48.314;11.562;2023-02-08T05:47:38;35.50;;;21.70;;
36585;SDS011;22591;48.314;11.562;2023-02-08T05:50:03;37.57;;;21.73;;
36585;SDS011;22591;48.314;11.562;2023-02-08T05:52:29;32.40;;;20.40;;
36585;SDS011;22591;48.314;11.562;2023-02-08T05:54:55;34.00;;;20.47;;
36585;SDS011;22591;48.314;11.562;2023-02-08T05:57:21;38.57;;;22.97;;
36585;SDS011;22591;48.314;11.562;2023-02-08T05:59:46;41.40;;;23.40;;
36585;SDS011;22591;48.314;11.562;2023-02-08T06:02:12;35.47;;;21.57;;
36585;SDS011;22591;48.314;11.562;2023-02-08T06:04:38;36.10;;;21.50;;
36585;SDS011;22591;48.314;11.562;2023-02-08T06:07:03;36.23;;;22.03;;
36585;SDS011;22591;48.314;11.562;2023-02-08T06:09:29;39.37;;;21.53;;
36585;SDS011;22591;48.314;11.562;2023-02-08T06:11:54;39.33;;;21.90;;
36585;SDS011;22591;48.314;11.562;2023-02-08T06:14:20;36.13;;;20.57;;
36585;SDS011;22591;48.314;11.562;2023-02-08T06:16:45;35.60;;;20.93;;
36585;SDS011;22591;48.314;11.562;2023-02-08T06:19:11;38.73;;;21.30;;
36585;SDS011;22591;48.314;11.562;2023-02-08T06:21:37;34.80;;;19.70;;
36585;SDS011;22591;48.314;11.562;2023-02-08T06:24:03;40.13;;;21.07;;
36585;SDS011;22591;48.314;11.562;2023-02-08T06:26:30;39.17;;;22.37;;
36585;SDS011;22591;48.314;11.562;2023-02-08T06:28:57;37.10;;;21.27;;
36585;SDS011;22591;48.314;11.562;2023-02-08T06:31:23;37.00;;;22.23;;
36585;SDS011;22591;48.314;11.562;2023-02-08T06:33:48;45.30;;;22.17;;
36585;SDS011;22591;48.314;11.562;2023-02-08T06:36:14;33.17;;;20.63;;
36585;SDS011;22591;48.314;11.562;2023-02-08T06:38:40;38.67;;;21.47;;
36585;SDS011;22591;48.314;11.562;2023-02-08T06:41:06;39.37;;;21.97;;
36585;SDS011;22591;48.314;11.562;2023-02-08T06:43:31;36.50;;;21.67;;
36585;SDS011;22591;48.314;11.562;2023-02-08T06:45:57;42.07;;;23.27;;
36585;SDS011;22591;48.314;11.562;2023-02-08T06:48:22;41.73;;;23.63;;
36585;SDS011;22591;48.314;11.562;2023-02-08T06:50:50;34.70;;;22.20;;
36585;SDS011;22591;48.314;11.562;2023-02-08T06:53:17;34.23;;;20.67;;
36585;SDS011;22591;48.314;11.562;2023-02-08T06:55:46;35.77;;;21.57;;
36585;SDS011;22591;48.314;11.562;2023-02-08T06:58:15;38.60;;;20.43;;
36585;SDS011;22591;48.314;11.562;2023-02-08T07:00:40;41.23;;;22.47;;
36585;SDS011;22591;48.314;11.562;2023-02-08T07:03:06;37.63;;;22.47;;
36585;SDS011;22591;48.314;11.562;2023-02-08T07:05:33;35.53;;;21.33;;
36585;SDS011;22591;48.314;11.562;2023-02-08T07:07:59;33.97;;;20.60;;
36585;SDS011;22591;48.314;11.562;2023-02-08T07:10:25;42.03;;;21.53;;
36585;SDS011;22591;48.314;11.562;2023-02-08T07:12:50;36.53;;;22.63;;
36585;SDS011;22591;48.314;11.562;2023-02-08T07:15:16;35.40;;;21.77;;
36585;SDS011;22591;48.314;11.562;2023-02-08T07:17:41;39.40;;;22.90;;
36585;SDS011;22591;48.314;11.562;2023-02-08T07:20:07;36.23;;;21.93;;
36585;SDS011;22591;48.314;11.562;2023-02-08T07:22:35;39.73;;;22.97;;
36585;SDS011;22591;48.314;11.562;2023-02-08T07:25:02;38.43;;;23.13;;
36585;SDS011;22591;48.314;11.562;2023-02-08T07:27:28;34.47;;;20.97;;
36585;SDS011;22591;48.314;11.562;2023-02-08T07:29:53;44.73;;;24.00;;
36585;SDS011;22591;48.314;11.562;2023-02-08T07:32:19;36.00;;;21.37;;
36585;SDS011;22591;48.314;11.562;2023-02-08T07:34:44;35.63;;;20.50;;
36585;SDS011;22591;48.314;11.562;2023-02-08T07:37:10;35.93;;;21.67;;
36585;SDS011;22591;48.314;11.562;2023-02-08T07:39:36;35.40;;;21.43;;
36585;SDS011;22591;48.314;11.562;2023-02-08T07:42:01;37.73;;;22.83;;
36585;SDS011;22591;48.314;11.562;2023-02-08T07:44:29;39.47;;;22.07;;
36585;SDS011;22591;48.314;11.562;2023-02-08T07:46:54;34.40;;;20.97;;
36585;SDS011;22591;48.314;11.562;2023-02-08T07:49:20;34.97;;;19.77;;
36585;SDS011;22591;48.314;11.562;2023-02-08T07:51:46;38.37;;;21.60;;
36585;SDS011;22591;48.314;11.562;2023-02-08T07:54:11;36.40;;;22.27;;
36585;SDS011;22591;48.314;11.562;2023-02-08T07:56:37;39.37;;;23.03;;
36585;SDS011;22591;48.314;11.562;2023-02-08T07:59:02;40.87;;;23.20;;
36585;SDS011;22591;48.314;11.562;2023-02-08T08:01:28;39.37;;;23.03;;
36585;SDS011;22591;48.314;11.562;2023-02-08T08:03:53;36.67;;;22.47;;
36585;SDS011;22591;48.314;11.562;2023-02-08T08:06:19;38.40;;;22.13;;
36585;SDS011;22591;48.314;11.562;2023-02-08T08:08:46;33.67;;;21.63;;
36585;SDS011;22591;48.314;11.562;2023-02-08T08:11:13;41.40;;;21.63;;
36585;SDS011;22591;48.314;11.562;2023-02-08T08:13:39;34.30;;;21.87;;
36585;SDS011;22591;48.314;11.562;2023-02-08T08:16:04;39.83;;;23.23;;
36585;SDS011;22591;48.314;11.562;2023-02-08T08:18:30;38.90;;;23.23;;
36585;SDS011;22591;48.314;11.562;2023-02-08T08:20:55;43.60;;;23.87;;
36585;SDS011;22591;48.314;11.562;2023-02-08T08:23:21;36.87;;;21.63;;
36585;SDS011;22591;48.314;11.562;2023-02-08T08:25:48;35.83;;;22.87;;
36585;SDS011;22591;48.314;11.562;2023-02-08T08:28:14;38.23;;;23.07;;
36585;SDS011;22591;48.314;11.562;2023-02-08T08:30:43;35.17;;;20.63;;
36585;SDS011;22591;48.314;11.562;2023-02-08T08:33:09;34.07;;;22.77;;
36585;SDS011;22591;48.314;11.562;2023-02-08T08:35:36;35.43;;;22.23;;
36585;SDS011;22591;48.314;11.562;2023-02-08T08:38:01;39.43;;;22.97;;
36585;SDS011;22591;48.314;11.562;2023-02-08T08:40:27;36.30;;;21.87;;
36585;SDS011;22591;48.314;11.562;2023-02-08T08:42:53;34.30;;;21.20;;
36585;SDS011;22591;48.314;11.562;2023-02-08T08:45:18;37.63;;;22.13;;
36585;SDS011;22591;48.314;11.562;2023-02-08T08:47:44;33.93;;;20.47;;
36585;SDS011;22591;48.314;11.562;2023-02-08T08:50:09;35.80;;;22.97;;
36585;SDS011;22591;48.314;11.562;2023-02-08T08:52:35;34.97;;;21.57;;
36585;SDS011;22591;48.314;11.562;2023-02-08T08:55:00;34.20;;;22.20;;
36585;SDS011;22591;48.314;11.562;2023-02-08T08:57:26;36.87;;;20.93;;
36585;SDS011;22591;48.314;11.562;2023-02-08T08:59:51;34.43;;;19.13;;
36585;SDS011;22591;48.314;11.562;2023-02-08T09:02:17;37.57;;;20.90;;
36585;SDS011;22591;48.314;11.562;2023-02-08T09:04:42;34.67;;;21.47;;
36585;SDS011;22591;48.314;11.562;2023-02-08T09:07:08;34.60;;;21.70;;
36585;SDS011;22591;48.314;11.562;2023-02-08T09:09:34;34.13;;;20.70;;
36585;SDS011;22591;48.314;11.562;2023-02-08T09:12:00;34.30;;;20.60;;
36585;SDS011;22591;48.314;11.562;2023-02-08T09:14:26;33.60;;;21.83;;
36585;SDS011;22591;48.314;11.562;2023-02-08T09:16:51;31.67;;;20.73;;
36585;SDS011;22591;48.314;11.562;2023-02-08T09:19:17;29.33;;;19.53;;
36585;SDS011;22591;48.314;11.562;2023-02-08T09:21:43;32.03;;;18.57;;
36585;SDS011;22591;48.314;11.562;2023-02-08T09:24:08;33.53;;;20.77;;
36585;SDS011;22591;48.314;11.562;2023-02-08T09:26:34;29.80;;;20.02;;
36585;SDS011;22591;48.314;11.562;2023-02-08T09:29:00;32.63;;;20.50;;
36585;SDS011;22591;48.314;11.562;2023-02-08T09:31:27;31.47;;;19.63;;
36585;SDS011;22591;48.314;11.562;2023-02-08T09:33:58;33.30;;;20.77;;
36585;SDS011;22591;48.314;11.562;2023-02-08T09:36:25;33.73;;;21.40;;
36585;SDS011;22591;48.314;11.562;2023-02-08T09:38:53;29.03;;;18.57;;
36585;SDS011;22591;48.314;11.562;2023-02-08T09:46:32;27.60;;;18.13;;
36585;SDS011;22591;48.314;11.562;2023-02-08T09:49:02;31.15;;;19.45;;
36585;SDS011;22591;48.314;11.562;2023-02-08T09:54:17;30.98;;;19.63;;
36585;SDS011;22591;48.314;11.562;2023-02-08T09:56:50;28.88;;;18.33;;
36585;SDS011;22591;48.314;11.562;2023-02-08T09:59:22;34.30;;;18.90;;
36585;SDS011;22591;48.314;11.562;2023-02-08T10:01:53;27.35;;;17.63;;
36585;SDS011;22591;48.314;11.562;2023-02-08T10:04:29;33.15;;;19.52;;
36585;SDS011;22591;48.314;11.562;2023-02-08T10:06:58;25.02;;;16.35;;
36585;SDS011;22591;48.314;11.562;2023-02-08T10:09:24;27.15;;;19.33;;
36585;SDS011;22591;48.314;11.562;2023-02-08T10:25:11;27.17;;;17.90;;
36585;SDS011;22591;48.314;11.562;2023-02-08T10:30:41;29.17;;;18.05;;
36585;SDS011;22591;48.314;11.562;2023-02-08T10:33:21;27.27;;;17.98;;
36585;SDS011;22591;48.314;11.562;2023-02-08T10:35:55;27.83;;;18.30;;
36585;SDS011;22591;48.314;11.562;2023-02-08T10:38:25;24.92;;;17.13;;
36585;SDS011;22591;48.314;11.562;2023-02-08T10:40:55;25.98;;;16.55;;
36585;SDS011;22591;48.314;11.562;2023-02-08T10:51:32;24.05;;;16.25;;
36585;SDS011;22591;48.314;11.562;2023-02-08T10:53:58;23.67;;;16.15;;
36585;SDS011;22591;48.314;11.562;2023-02-08T10:59:15;30.88;;;18.00;;
36585;SDS011;22591;48.314;11.562;2023-02-08T11:01:45;26.15;;;16.38;;
36585;SDS011;22591;48.314;11.562;2023-02-08T11:04:12;28.38;;;16.95;;
36585;SDS011;22591;48.314;11.562;2023-02-08T11:06:39;26.75;;;17.02;;
36585;SDS011;22591;48.314;11.562;2023-02-08T11:09:06;33.55;;;19.52;;
36585;SDS011;22591;48.314;11.562;2023-02-08T11:11:43;26.38;;;17.25;;
36585;SDS011;22591;48.314;11.562;2023-02-08T11:14:46;24.48;;;16.38;;
36585;SDS011;22591;48.314;11.562;2023-02-08T11:17:05;29.70;;;17.30;;
36585;SDS011;22591;48.314;11.562;2023-02-08T11:19:48;26.73;;;18.13;;
36585;SDS011;22591;48.314;11.562;2023-02-08T11:22:15;22.92;;;16.17;;
36585;SDS011;22591;48.314;11.562;2023-02-08T11:24:43;24.75;;;16.80;;
36585;SDS011;22591;48.314;11.562;2023-02-08T11:27:18;29.92;;;18.00;;
36585;SDS011;22591;48.314;11.562;2023-02-08T11:32:37;26.27;;;17.73;;
36585;SDS011;22591;48.314;11.562;2023-02-08T11:35:19;24.65;;;16.92;;
36585;SDS011;22591;48.314;11.562;2023-02-08T11:37:48;24.63;;;15.95;;
36585;SDS011;22591;48.314;11.562;2023-02-08T11:40:22;24.45;;;16.90;;
36585;SDS011;22591;48.314;11.562;2023-02-08T11:42:49;24.70;;;16.52;;
36585;SDS011;22591;48.314;11.562;2023-02-08T11:45:34;24.08;;;17.08;;
36585;SDS011;22591;48.314;11.562;2023-02-08T11:48:01;25.88;;;16.38;;
36585;SDS011;22591;48.314;11.562;2023-02-08T12:01:37;24.48;;;16.92;;
36585;SDS011;22591;48.314;11.562;2023-02-08T12:04:05;26.95;;;18.70;;
36585;SDS011;22591;48.314;11.562;2023-02-08T12:09:18;23.88;;;16.63;;
36585;SDS011;22591;48.314;11.562;2023-02-08T12:14:47;25.20;;;17.85;;
36585;SDS011;22591;48.314;11.562;2023-02-08T12:33:30;25.98;;;16.65;;
36585;SDS011;22591;48.314;11.562;2023-02-08T12:39:42;28.85;;;16.88;;
36585;SDS011;22591;48.314;11.562;2023-02-08T12:42:32;26.10;;;16.73;;
36585;SDS011;22591;48.314;11.562;2023-02-08T12:45:08;26.17;;;16.05;;
36585;SDS011;22591;48.314;11.562;2023-02-08T12:50:40;26.83;;;16.45;;
36585;SDS011;22591;48.314;11.562;2023-02-08T12:53:19;26.83;;;17.60;;
36585;SDS011;22591;48.314;11.562;2023-02-08T12:55:56;24.75;;;16.02;;
36585;SDS011;22591;48.314;11.562;2023-02-08T12:58:33;24.10;;;17.45;;
36585;SDS011;22591;48.314;11.562;2023-02-08T13:01:18;26.38;;;15.88;;
36585;SDS011;22591;48.314;11.562;2023-02-08T13:06:25;27.98;;;18.00;;
36585;SDS011;22591;48.314;11.562;2023-02-08T13:08:56;26.13;;;16.95;;
36585;SDS011;22591;48.314;11.562;2023-02-08T13:11:29;22.13;;;15.00;;
36585;SDS011;22591;48.314;11.562;2023-02-08T13:14:15;23.15;;;15.52;;
36585;SDS011;22591;48.314;11.562;2023-02-08T13:17:03;24.75;;;17.08;;
36585;SDS011;22591;48.314;11.562;2023-02-08T13:22:29;25.17;;;14.95;;
36585;SDS011;22591;48.314;11.562;2023-02-08T13:24:59;19.20;;;14.07;;
36585;SDS011;22591;48.314;11.562;2023-02-08T13:27:26;22.20;;;15.80;;
36585;SDS011;22591;48.314;11.562;2023-02-08T13:29:52;27.40;;;16.02;;
36585;SDS011;22591;48.314;11.562;2023-02-08T13:32:22;20.67;;;15.63;;
36585;SDS011;22591;48.314;11.562;2023-02-08T13:35:38;20.52;;;14.70;;
36585;SDS011;22591;48.314;11.562;2023-02-08T13:37:45;23.25;;;14.57;;
36585;SDS011;22591;48.314;11.562;2023-02-08T13:40:22;20.67;;;14.25;;
36585;SDS011;22591;48.314;11.562;2023-02-08T13:42:57;23.10;;;14.13;;
36585;SDS011;22591;48.314;11.562;2023-02-08T13:45:39;18.98;;;13.30;;
36585;SDS011;22591;48.314;11.562;2023-02-08T13:48:11;21.75;;;14.60;;
36585;SDS011;22591;48.314;11.562;2023-02-08T13:53:17;20.85;;;14.90;;
36585;SDS011;22591;48.314;11.562;2023-02-08T13:56:04;22.88;;;15.90;;
36585;SDS011;22591;48.314;11.562;2023-02-08T14:01:18;23.02;;;15.98;;
36585;SDS011;22591;48.314;11.562;2023-02-08T14:06:32;25.67;;;17.73;;
36585;SDS011;22591;48.314;11.562;2023-02-08T14:09:04;22.08;;;14.82;;
36585;SDS011;22591;48.314;11.562;2023-02-08T14:11:43;22.27;;;14.40;;
36585;SDS011;22591;48.314;11.562;2023-02-08T14:14:15;20.38;;;14.68;;
36585;SDS011;22591;48.314;11.562;2023-02-08T14:16:45;23.90;;;16.30;;
36585;SDS011;22591;48.314;11.562;2023-02-08T14:19:32;20.60;;;14.65;;
36585;SDS011;22591;48.314;11.562;2023-02-08T14:24:38;21.70;;;13.25;;
36585;SDS011;22591;48.314;11.562;2023-02-08T14:30:33;18.95;;;12.05;;
36585;SDS011;22591;48.314;11.562;2023-02-08T14:32:46;23.48;;;15.55;;
36585;SDS011;22591;48.314;11.562;2023-02-08T14:37:40;18.20;;;13.10;;
36585;SDS011;22591;48.314;11.562;2023-02-08T14:42:57;19.42;;;12.82;;
36585;SDS011;22591;48.314;11.562;2023-02-08T14:45:35;24.25;;;15.70;;
36585;SDS011;22591;48.314;11.562;2023-02-08T14:50:52;15.00;;;10.60;;
36585;SDS011;22591;48.314;11.562;2023-02-08T14:53:27;18.67;;;12.52;;
36585;SDS011;22591;48.314;11.562;2023-02-08T14:58:53;16.83;;;12.18;;
36585;SDS011;22591;48.314;11.562;2023-02-08T15:01:23;21.55;;;13.80;;
36585;SDS011;22591;48.314;11.562;2023-02-08T15:03:54;20.38;;;13.98;;
36585;SDS011;22591;48.314;11.562;2023-02-08T15:11:30;19.25;;;13.25;;
36585;SDS011;22591;48.314;11.562;2023-02-08T15:13:59;17.38;;;12.23;;
36585;SDS011;22591;48.314;11.562;2023-02-08T15:16:28;17.35;;;11.70;;
36585;SDS011;22591;48.314;11.562;2023-02-08T15:19:03;20.10;;;12.32;;
36585;SDS011;22591;48.314;11.562;2023-02-08T15:21:31;18.02;;;12.40;;
36585;SDS011;22591;48.314;11.562;2023-02-08T15:24:01;19.88;;;12.02;;
36585;SDS011;22591;48.314;11.562;2023-02-08T15:26:35;14.90;;;11.23;;
36585;SDS011;22591;48.314;11.562;2023-02-08T15:29:01;19.52;;;13.20;;
36585;SDS011;22591;48.314;11.562;2023-02-08T15:31:29;19.92;;;11.75;;
36585;SDS011;22591;48.314;11.562;2023-02-08T15:33:57;17.73;;;12.27;;
36585;SDS011;22591;48.314;11.562;2023-02-08T15:36:25;17.98;;;11.80;;
36585;SDS011;22591;48.314;11.562;2023-02-08T15:38:58;16.92;;;13.10;;
36585;SDS011;22591;48.314;11.562;2023-02-08T15:41:34;16.90;;;12.07;;
36585;SDS011;22591;48.314;11.562;2023-02-08T15:44:21;16.10;;;11.27;;
36585;SDS011;22591;48.314;11.562;2023-02-08T15:46:49;16.33;;;11.40;;
36585;SDS011;22591;48.314;11.562;2023-02-08T15:49:19;17.48;;;11.32;;
36585;SDS011;22591;48.314;11.562;2023-02-08T15:51:52;20.90;;;12.57;;
36585;SDS011;22591;48.314;11.562;2023-02-08T15:54:20;17.08;;;12.00;;
36585;SDS011;22591;48.314;11.562;2023-02-08T15:56:48;15.95;;;11.27;;
36585;SDS011;22591;48.314;11.562;2023-02-08T15:59:21;20.55;;;12.68;;
36585;SDS011;22591;48.314;11.562;2023-02-08T16:01:50;17.85;;;11.10;;
36585;SDS011;22591;48.314;11.562;2023-02-08T16:04:18;17.13;;;11.63;;
36585;SDS011;22591;48.314;11.562;2023-02-08T16:06:48;17.92;;;10.95;;
36585;SDS011;22591;48.314;11.562;2023-02-08T16:09:23;17.92;;;11.10;;
36585;SDS011;22591;48.314;11.562;2023-02-08T16:11:57;18.55;;;11.85;;
36585;SDS011;22591;48.314;11.562;2023-02-08T16:14:24;17.55;;;11.43;;
36585;SDS011;22591;48.314;11.562;2023-02-08T16:16:52;17.52;;;11.85;;
36585;SDS011;22591;48.314;11.562;2023-02-08T16:19:27;16.30;;;11.75;;
36585;SDS011;22591;48.314;11.562;2023-02-08T16:21:55;16.77;;;11.02;;
36585;SDS011;22591;48.314;11.562;2023-02-08T16:24:36;19.83;;;12.30;;
36585;SDS011;22591;48.314;11.562;2023-02-08T16:27:06;16.38;;;10.65;;
36585;SDS011;22591;48.314;11.562;2023-02-08T16:29:58;19.55;;;11.48;;
36585;SDS011;22591;48.314;11.562;2023-02-08T16:32:28;15.98;;;10.63;;
36585;SDS011;22591;48.314;11.562;2023-02-08T16:34:56;16.20;;;11.18;;
36585;SDS011;22591;48.314;11.562;2023-02-08T16:37:26;16.52;;;10.98;;
36585;SDS011;22591;48.314;11.562;2023-02-08T16:40:05;16.58;;;11.10;;
36585;SDS011;22591;48.314;11.562;2023-02-08T16:43:14;16.58;;;10.93;;